sensor_id;sensor_type;location;lat;lon;timestamp;pressure;altitude;pressure_sealevel;temperature
67822;BMP180;54434;50.096;20.082;2023-03-01T00:02:21;100067.00;;;-4.00
67822;BMP180;54434;50.096;20.082;2023-03-01T00:04:58;100066.00;;;-4.00
67822;BMP180;54434;50.096;20.082;2023-03-01T00:07:34;100068.00;;;-4.04
67822;BMP180;54434;50.096;20.082;2023-03-01T00:10:14;100067.00;;;-4.10
67822;BMP180;54434;50.096;20.082;2023-03-01T00:12:50;100068.00;;;-4.10
67822;BMP180;54434;50.096;20.082;2023-03-01T00:15:27;100060.80;;;-4.10
67822;BMP180;54434;50.096;20.082;2023-03-01T00:18:03;100058.40;;;-4.10
67822;BMP180;54434;50.096;20.082;2023-03-01T00:20:40;100063.80;;;-4.10
67822;BMP180;54434;50.096;20.082;2023-03-01T00:23:16;100062.60;;;-4.10
67822;BMP180;54434;50.096;20.082;2023-03-01T00:25:53;100065.80;;;-4.10
67822;BMP180;54434;50.096;20.082;2023-03-01T00:28:30;100062.60;;;-4.16
67822;BMP180;54434;50.096;20.082;2023-03-01T00:31:12;100054.80;;;-4.20
67822;BMP180;54434;50.096;20.082;2023-03-01T00:33:48;100053.60;;;-4.20
67822;BMP180;54434;50.096;20.082;2023-03-01T00:36:26;100052.40;;;-4.20
67822;BMP180;54434;50.096;20.082;2023-03-01T00:39:05;100047.80;;;-4.20
67822;BMP180;54434;50.096;20.082;2023-03-01T00:41:42;100043.80;;;-4.20
67822;BMP180;54434;50.096;20.082;2023-03-01T00:44:19;100039.00;;;-4.30
67822;BMP180;54434;50.096;20.082;2023-03-01T00:46:56;100035.20;;;-4.30
67822;BMP180;54434;50.096;20.082;2023-03-01T00:49:33;100036.40;;;-4.30
67822;BMP180;54434;50.096;20.082;2023-03-01T00:52:10;100027.80;;;-4.40
67822;BMP180;54434;50.096;20.082;2023-03-01T00:54:47;100023.20;;;-4.40
67822;BMP180;54434;50.096;20.082;2023-03-01T00:57:23;100024.80;;;-4.40
67822;BMP180;54434;50.096;20.082;2023-03-01T01:00:00;100025.20;;;-4.40
67822;BMP180;54434;50.096;20.082;2023-03-01T01:02:38;100026.20;;;-4.50
67822;BMP180;54434;50.096;20.082;2023-03-01T01:05:15;100025.80;;;-4.50
67822;BMP180;54434;50.096;20.082;2023-03-01T01:07:55;100030.60;;;-4.50
67822;BMP180;54434;50.096;20.082;2023-03-01T01:10:34;100026.20;;;-4.54
67822;BMP180;54434;50.096;20.082;2023-03-01T01:13:10;100030.20;;;-4.50
67822;BMP180;54434;50.096;20.082;2023-03-01T01:15:47;100028.00;;;-4.56
67822;BMP180;54434;50.096;20.082;2023-03-01T01:18:24;100026.40;;;-4.58
67822;BMP180;54434;50.096;20.082;2023-03-01T01:21:05;100022.20;;;-4.56
67822;BMP180;54434;50.096;20.082;2023-03-01T01:23:43;100018.80;;;-4.60
67822;BMP180;54434;50.096;20.082;2023-03-01T01:26:22;100014.00;;;-4.60
67822;BMP180;54434;50.096;20.082;2023-03-01T01:29:00;100011.20;;;-4.60
67822;BMP180;54434;50.096;20.082;2023-03-01T01:31:39;100005.00;;;-4.60
67822;BMP180;54434;50.096;20.082;2023-03-01T01:34:21;100000.00;;;-4.60
67822;BMP180;54434;50.096;20.082;2023-03-01T01:36:57;100000.40;;;-4.60
67822;BMP180;54434;50.096;20.082;2023-03-01T01:39:37;100004.80;;;-4.60
67822;BMP180;54434;50.096;20.082;2023-03-01T01:42:19;100008.60;;;-4.60
67822;BMP180;54434;50.096;20.082;2023-03-01T01:45:33;100004.60;;;-4.60
67822;BMP180;54434;50.096;20.082;2023-03-01T01:48:16;100005.40;;;-4.60
67822;BMP180;54434;50.096;20.082;2023-03-01T01:51:01;100004.80;;;-4.66
67822;BMP180;54434;50.096;20.082;2023-03-01T01:53:40;99998.60;;;-4.70
67822;BMP180;54434;50.096;20.082;2023-03-01T01:56:20;99996.40;;;-4.70
67822;BMP180;54434;50.096;20.082;2023-03-01T01:58:57;99996.00;;;-4.70
67822;BMP180;54434;50.096;20.082;2023-03-01T02:01:34;99989.20;;;-4.70
67822;BMP180;54434;50.096;20.082;2023-03-01T02:04:11;99982.00;;;-4.70
67822;BMP180;54434;50.096;20.082;2023-03-01T02:06:58;99986.20;;;-4.70
67822;BMP180;54434;50.096;20.082;2023-03-01T02:09:37;99987.00;;;-4.72
67822;BMP180;54434;50.096;20.082;2023-03-01T02:12:15;99994.20;;;-4.80
67822;BMP180;54434;50.096;20.082;2023-03-01T02:14:53;99995.20;;;-4.80
67822;BMP180;54434;50.096;20.082;2023-03-01T02:17:29;99995.60;;;-4.80
67822;BMP180;54434;50.096;20.082;2023-03-01T02:20:21;99991.80;;;-4.80
67822;BMP180;54434;50.096;20.082;2023-03-01T02:22:59;99994.40;;;-4.80
67822;BMP180;54434;50.096;20.082;2023-03-01T02:25:49;99997.60;;;-4.80
67822;BMP180;54434;50.096;20.082;2023-03-01T02:28:33;100001.40;;;-4.80
67822;BMP180;54434;50.096;20.082;2023-03-01T02:31:14;100004.00;;;-4.80
67822;BMP180;54434;50.096;20.082;2023-03-01T02:34:11;100004.60;;;-4.80
67822;BMP180;54434;50.096;20.082;2023-03-01T02:36:53;100004.40;;;-4.80
67822;BMP180;54434;50.096;20.082;2023-03-01T02:39:36;100003.20;;;-4.80
67822;BMP180;54434;50.096;20.082;2023-03-01T02:42:22;99999.60;;;-4.80
67822;BMP180;54434;50.096;20.082;2023-03-01T02:45:01;100001.00;;;-4.80
67822;BMP180;54434;50.096;20.082;2023-03-01T02:47:37;99996.80;;;-4.84
67822;BMP180;54434;50.096;20.082;2023-03-01T02:50:51;100000.00;;;-4.88
67822;BMP180;54434;50.096;20.082;2023-03-01T02:53:41;100006.00;;;-4.90
67822;BMP180;54434;50.096;20.082;2023-03-01T02:56:21;99997.00;;;-4.90
67822;BMP180;54434;50.096;20.082;2023-03-01T02:58:59;99997.20;;;-4.90
67822;BMP180;54434;50.096;20.082;2023-03-01T03:01:36;99995.80;;;-4.90
67822;BMP180;54434;50.096;20.082;2023-03-01T03:04:18;99998.40;;;-4.90
67822;BMP180;54434;50.096;20.082;2023-03-01T03:06:56;99993.40;;;-4.90
67822;BMP180;54434;50.096;20.082;2023-03-01T03:09:33;99988.20;;;-4.98
67822;BMP180;54434;50.096;20.082;2023-03-01T03:12:10;99984.40;;;-5.00
67822;BMP180;54434;50.096;20.082;2023-03-01T03:14:47;99981.20;;;-5.00
67822;BMP180;54434;50.096;20.082;2023-03-01T03:17:24;99983.40;;;-5.00
67822;BMP180;54434;50.096;20.082;2023-03-01T03:20:00;99973.00;;;-5.00
67822;BMP180;54434;50.096;20.082;2023-03-01T03:22:38;99975.00;;;-5.00
67822;BMP180;54434;50.096;20.082;2023-03-01T03:25:15;99976.20;;;-5.00
67822;BMP180;54434;50.096;20.082;2023-03-01T03:27:54;99972.40;;;-5.04
67822;BMP180;54434;50.096;20.082;2023-03-01T03:30:33;99970.40;;;-5.02
67822;BMP180;54434;50.096;20.082;2023-03-01T03:33:11;99976.60;;;-5.06
67822;BMP180;54434;50.096;20.082;2023-03-01T03:35:51;99980.20;;;-5.08
67822;BMP180;54434;50.096;20.082;2023-03-01T03:38:27;99985.20;;;-5.10
67822;BMP180;54434;50.096;20.082;2023-03-01T03:41:09;99987.40;;;-5.10
67822;BMP180;54434;50.096;20.082;2023-03-01T03:43:46;99987.80;;;-5.10
67822;BMP180;54434;50.096;20.082;2023-03-01T03:46:24;99990.40;;;-5.10
67822;BMP180;54434;50.096;20.082;2023-03-01T03:49:01;99986.00;;;-5.12
67822;BMP180;54434;50.096;20.082;2023-03-01T03:51:37;99985.40;;;-5.14
67822;BMP180;54434;50.096;20.082;2023-03-01T03:54:14;99986.00;;;-5.20
67822;BMP180;54434;50.096;20.082;2023-03-01T03:56:50;99984.80;;;-5.20
67822;BMP180;54434;50.096;20.082;2023-03-01T03:59:28;99984.60;;;-5.20
67822;BMP180;54434;50.096;20.082;2023-03-01T04:02:04;99976.80;;;-5.20
67822;BMP180;54434;50.096;20.082;2023-03-01T04:04:44;99979.60;;;-5.20
67822;BMP180;54434;50.096;20.082;2023-03-01T04:07:20;99981.40;;;-5.20
67822;BMP180;54434;50.096;20.082;2023-03-01T04:09:56;99979.40;;;-5.20
67822;BMP180;54434;50.096;20.082;2023-03-01T04:12:33;99971.00;;;-5.20
67822;BMP180;54434;50.096;20.082;2023-03-01T04:15:13;99976.60;;;-5.20
67822;BMP180;54434;50.096;20.082;2023-03-01T04:17:51;99981.80;;;-5.28
67822;BMP180;54434;50.096;20.082;2023-03-01T04:20:30;99979.40;;;-5.30
67822;BMP180;54434;50.096;20.082;2023-03-01T04:23:12;99977.20;;;-5.30
67822;BMP180;54434;50.096;20.082;2023-03-01T04:25:53;99976.60;;;-5.30
67822;BMP180;54434;50.096;20.082;2023-03-01T04:28:33;99987.00;;;-5.30
67822;BMP180;54434;50.096;20.082;2023-03-01T04:31:13;99980.80;;;-5.30
67822;BMP180;54434;50.096;20.082;2023-03-01T04:33:54;99979.20;;;-5.30
67822;BMP180;54434;50.096;20.082;2023-03-01T04:36:32;99977.00;;;-5.30
67822;BMP180;54434;50.096;20.082;2023-03-01T04:39:11;99972.00;;;-5.30
67822;BMP180;54434;50.096;20.082;2023-03-01T04:41:48;99965.80;;;-5.30
67822;BMP180;54434;50.096;20.082;2023-03-01T04:44:24;99959.60;;;-5.40
67822;BMP180;54434;50.096;20.082;2023-03-01T04:47:00;99958.60;;;-5.40
67822;BMP180;54434;50.096;20.082;2023-03-01T04:49:37;99955.80;;;-5.40
67822;BMP180;54434;50.096;20.082;2023-03-01T04:52:16;99952.00;;;-5.40
67822;BMP180;54434;50.096;20.082;2023-03-01T04:54:52;99960.60;;;-5.50
67822;BMP180;54434;50.096;20.082;2023-03-01T04:57:29;99958.20;;;-5.50
67822;BMP180;54434;50.096;20.082;2023-03-01T05:00:10;99959.20;;;-5.50
67822;BMP180;54434;50.096;20.082;2023-03-01T05:02:59;99964.40;;;-5.50
67822;BMP180;54434;50.096;20.082;2023-03-01T05:05:39;99966.60;;;-5.50
67822;BMP180;54434;50.096;20.082;2023-03-01T05:08:16;99969.20;;;-5.50
67822;BMP180;54434;50.096;20.082;2023-03-01T05:10:55;99961.40;;;-5.50
67822;BMP180;54434;50.096;20.082;2023-03-01T05:13:31;99950.20;;;-5.50
67822;BMP180;54434;50.096;20.082;2023-03-01T05:16:10;99953.20;;;-5.50
67822;BMP180;54434;50.096;20.082;2023-03-01T05:18:47;99952.80;;;-5.50
67822;BMP180;54434;50.096;20.082;2023-03-01T05:21:25;99954.40;;;-5.50
67822;BMP180;54434;50.096;20.082;2023-03-01T05:24:02;99954.20;;;-5.50
67822;BMP180;54434;50.096;20.082;2023-03-01T05:26:39;99955.80;;;-5.50
67822;BMP180;54434;50.096;20.082;2023-03-01T05:29:16;99959.60;;;-5.50
67822;BMP180;54434;50.096;20.082;2023-03-01T05:31:55;99962.00;;;-5.50
67822;BMP180;54434;50.096;20.082;2023-03-01T05:34:36;99963.00;;;-5.50
67822;BMP180;54434;50.096;20.082;2023-03-01T05:37:13;99967.40;;;-5.50
67822;BMP180;54434;50.096;20.082;2023-03-01T05:39:50;99965.80;;;-5.40
67822;BMP180;54434;50.096;20.082;2023-03-01T05:42:26;99965.60;;;-5.40
67822;BMP180;54434;50.096;20.082;2023-03-01T05:45:03;99966.00;;;-5.40
67822;BMP180;54434;50.096;20.082;2023-03-01T05:47:46;99968.40;;;-5.30
67822;BMP180;54434;50.096;20.082;2023-03-01T05:50:26;99969.60;;;-5.30
67822;BMP180;54434;50.096;20.082;2023-03-01T05:53:06;99966.60;;;-5.28
67822;BMP180;54434;50.096;20.082;2023-03-01T05:55:43;99963.60;;;-5.20
67822;BMP180;54434;50.096;20.082;2023-03-01T05:58:23;99967.60;;;-5.20
67822;BMP180;54434;50.096;20.082;2023-03-01T06:00:59;99966.80;;;-5.10
67822;BMP180;54434;50.096;20.082;2023-03-01T06:03:36;99967.40;;;-5.00
67822;BMP180;54434;50.096;20.082;2023-03-01T06:06:12;99967.60;;;-5.00
67822;BMP180;54434;50.096;20.082;2023-03-01T06:08:50;99966.80;;;-4.90
67822;BMP180;54434;50.096;20.082;2023-03-01T06:11:26;99971.60;;;-4.80
67822;BMP180;54434;50.096;20.082;2023-03-01T06:14:03;99973.60;;;-4.70
67822;BMP180;54434;50.096;20.082;2023-03-01T06:16:41;99973.60;;;-4.50
67822;BMP180;54434;50.096;20.082;2023-03-01T06:19:17;99976.40;;;-4.36
67822;BMP180;54434;50.096;20.082;2023-03-01T06:21:54;99978.20;;;-4.20
67822;BMP180;54434;50.096;20.082;2023-03-01T06:24:30;99976.60;;;-4.00
67822;BMP180;54434;50.096;20.082;2023-03-01T06:27:08;99979.60;;;-3.80
67822;BMP180;54434;50.096;20.082;2023-03-01T06:29:44;99980.60;;;-3.60
67822;BMP180;54434;50.096;20.082;2023-03-01T06:32:20;99974.40;;;-3.40
67822;BMP180;54434;50.096;20.082;2023-03-01T06:34:57;99981.20;;;-3.20
67822;BMP180;54434;50.096;20.082;2023-03-01T06:37:34;99978.80;;;-3.02
67822;BMP180;54434;50.096;20.082;2023-03-01T06:40:14;99969.40;;;-2.90
67822;BMP180;54434;50.096;20.082;2023-03-01T06:42:53;99975.80;;;-2.70
67822;BMP180;54434;50.096;20.082;2023-03-01T06:45:29;99970.60;;;-2.50
67822;BMP180;54434;50.096;20.082;2023-03-01T06:48:09;99974.80;;;-2.34
67822;BMP180;54434;50.096;20.082;2023-03-01T06:50:45;99967.60;;;-2.20
67822;BMP180;54434;50.096;20.082;2023-03-01T06:53:22;99971.80;;;-2.00
67822;BMP180;54434;50.096;20.082;2023-03-01T06:56:00;99973.00;;;-1.86
67822;BMP180;54434;50.096;20.082;2023-03-01T06:58:36;99965.60;;;-1.68
67822;BMP180;54434;50.096;20.082;2023-03-01T07:01:13;99965.00;;;-1.50
67822;BMP180;54434;50.096;20.082;2023-03-01T07:03:50;99962.60;;;-1.38
67822;BMP180;54434;50.096;20.082;2023-03-01T07:06:26;99956.20;;;-1.18
67822;BMP180;54434;50.096;20.082;2023-03-01T07:09:04;99956.60;;;-0.76
67822;BMP180;54434;50.096;20.082;2023-03-01T07:11:41;99953.40;;;-0.24
67822;BMP180;54434;50.096;20.082;2023-03-01T07:14:17;99951.00;;;0.24
67822;BMP180;54434;50.096;20.082;2023-03-01T07:16:54;99946.40;;;0.72
67822;BMP180;54434;50.096;20.082;2023-03-01T07:19:31;99943.80;;;1.20
67822;BMP180;54434;50.096;20.082;2023-03-01T07:22:09;99944.20;;;1.64
67822;BMP180;54434;50.096;20.082;2023-03-01T07:24:46;99942.20;;;2.02
67822;BMP180;54434;50.096;20.082;2023-03-01T07:27:22;99942.00;;;2.40
67822;BMP180;54434;50.096;20.082;2023-03-01T07:29:58;99940.20;;;2.80
67822;BMP180;54434;50.096;20.082;2023-03-01T07:32:35;99940.60;;;3.20
67822;BMP180;54434;50.096;20.082;2023-03-01T07:35:12;99947.00;;;3.58
67822;BMP180;54434;50.096;20.082;2023-03-01T07:37:49;99949.80;;;3.90
67822;BMP180;54434;50.096;20.082;2023-03-01T07:40:26;99954.40;;;4.20
67822;BMP180;54434;50.096;20.082;2023-03-01T07:43:02;99957.60;;;4.50
67822;BMP180;54434;50.096;20.082;2023-03-01T07:45:39;99963.20;;;4.82
67822;BMP180;54434;50.096;20.082;2023-03-01T07:48:15;99962.20;;;5.10
67822;BMP180;54434;50.096;20.082;2023-03-01T07:50:52;99963.40;;;5.30
67822;BMP180;54434;50.096;20.082;2023-03-01T07:53:28;99957.00;;;5.50
67822;BMP180;54434;50.096;20.082;2023-03-01T07:56:09;99963.00;;;5.60
67822;BMP180;54434;50.096;20.082;2023-03-01T07:58:47;99961.80;;;5.78
67822;BMP180;54434;50.096;20.082;2023-03-01T08:01:25;99959.20;;;5.90
67822;BMP180;54434;50.096;20.082;2023-03-01T08:04:01;99962.60;;;6.10
67822;BMP180;54434;50.096;20.082;2023-03-01T08:06:41;99954.80;;;6.14
67822;BMP180;54434;50.096;20.082;2023-03-01T08:09:18;99949.60;;;6.20
67822;BMP180;54434;50.096;20.082;2023-03-01T08:11:55;99944.60;;;6.22
67822;BMP180;54434;50.096;20.082;2023-03-01T08:14:32;99947.00;;;6.40
67822;BMP180;54434;50.096;20.082;2023-03-01T08:17:09;99951.20;;;6.50
67822;BMP180;54434;50.096;20.082;2023-03-01T08:19:45;99951.80;;;6.62
67822;BMP180;54434;50.096;20.082;2023-03-01T08:22:21;99950.40;;;6.76
67822;BMP180;54434;50.096;20.082;2023-03-01T08:24:58;99951.40;;;6.90
67822;BMP180;54434;50.096;20.082;2023-03-01T08:27:34;99951.00;;;7.00
67822;BMP180;54434;50.096;20.082;2023-03-01T08:30:15;99951.20;;;7.00
67822;BMP180;54434;50.096;20.082;2023-03-01T08:32:51;99942.20;;;7.00
67822;BMP180;54434;50.096;20.082;2023-03-01T08:35:28;99939.40;;;7.10
67822;BMP180;54434;50.096;20.082;2023-03-01T08:38:04;99940.60;;;7.12
67822;BMP180;54434;50.096;20.082;2023-03-01T08:40:40;99934.60;;;7.20
67822;BMP180;54434;50.096;20.082;2023-03-01T08:43:17;99937.80;;;7.30
67822;BMP180;54434;50.096;20.082;2023-03-01T08:45:56;99933.40;;;7.40
67822;BMP180;54434;50.096;20.082;2023-03-01T08:48:33;99931.40;;;7.40
67822;BMP180;54434;50.096;20.082;2023-03-01T08:51:16;99933.60;;;7.48
67822;BMP180;54434;50.096;20.082;2023-03-01T08:53:56;99932.20;;;7.50
67822;BMP180;54434;50.096;20.082;2023-03-01T08:56:33;99929.80;;;7.50
67822;BMP180;54434;50.096;20.082;2023-03-01T08:59:10;99936.40;;;7.50
67822;BMP180;54434;50.096;20.082;2023-03-01T09:01:48;99937.40;;;7.48
67822;BMP180;54434;50.096;20.082;2023-03-01T09:04:25;99940.20;;;7.30
67822;BMP180;54434;50.096;20.082;2023-03-01T09:07:01;99938.00;;;7.30
67822;BMP180;54434;50.096;20.082;2023-03-01T09:09:38;99944.60;;;7.20
67822;BMP180;54434;50.096;20.082;2023-03-01T09:12:15;99935.00;;;7.02
67822;BMP180;54434;50.096;20.082;2023-03-01T09:14:52;99927.20;;;7.00
67822;BMP180;54434;50.096;20.082;2023-03-01T09:17:28;99921.80;;;6.86
67822;BMP180;54434;50.096;20.082;2023-03-01T09:20:06;99922.80;;;6.80
67822;BMP180;54434;50.096;20.082;2023-03-01T09:22:43;99924.40;;;6.90
67822;BMP180;54434;50.096;20.082;2023-03-01T09:25:20;99924.60;;;6.90
67822;BMP180;54434;50.096;20.082;2023-03-01T09:27:57;99923.00;;;6.80
67822;BMP180;54434;50.096;20.082;2023-03-01T09:30:34;99922.80;;;6.70
67822;BMP180;54434;50.096;20.082;2023-03-01T09:33:11;99923.40;;;6.60
67822;BMP180;54434;50.096;20.082;2023-03-01T09:35:49;99928.40;;;6.70
67822;BMP180;54434;50.096;20.082;2023-03-01T09:38:26;99934.80;;;6.60
67822;BMP180;54434;50.096;20.082;2023-03-01T09:41:08;99934.20;;;6.48
67822;BMP180;54434;50.096;20.082;2023-03-01T09:43:50;99937.00;;;6.30
67822;BMP180;54434;50.096;20.082;2023-03-01T09:46:34;99934.80;;;6.20
67822;BMP180;54434;50.096;20.082;2023-03-01T09:49:17;99937.20;;;6.04
67822;BMP180;54434;50.096;20.082;2023-03-01T09:52:06;99936.40;;;5.98
67822;BMP180;54434;50.096;20.082;2023-03-01T09:54:45;99931.80;;;5.80
67822;BMP180;54434;50.096;20.082;2023-03-01T09:57:41;99938.80;;;5.74
67822;BMP180;54434;50.096;20.082;2023-03-01T10:00:44;99940.20;;;5.60
67822;BMP180;54434;50.096;20.082;2023-03-01T10:03:34;99937.40;;;5.40
67822;BMP180;54434;50.096;20.082;2023-03-01T10:06:21;99937.20;;;5.30
67822;BMP180;54434;50.096;20.082;2023-03-01T10:09:15;99940.40;;;5.20
67822;BMP180;54434;50.096;20.082;2023-03-01T10:11:56;99930.00;;;5.10
67822;BMP180;54434;50.096;20.082;2023-03-01T10:14:39;99930.60;;;5.10
67822;BMP180;54434;50.096;20.082;2023-03-01T10:17:27;99927.80;;;5.00
67822;BMP180;54434;50.096;20.082;2023-03-01T10:20:25;99923.60;;;5.00
67822;BMP180;54434;50.096;20.082;2023-03-01T10:23:02;99924.40;;;4.98
67822;BMP180;54434;50.096;20.082;2023-03-01T10:26:01;99924.20;;;5.00
67822;BMP180;54434;50.096;20.082;2023-03-01T10:28:57;99920.20;;;4.96
67822;BMP180;54434;50.096;20.082;2023-03-01T10:31:46;99921.80;;;4.90
67822;BMP180;54434;50.096;20.082;2023-03-01T10:34:30;99916.20;;;4.80
67822;BMP180;54434;50.096;20.082;2023-03-01T10:37:17;99914.20;;;4.80
67822;BMP180;54434;50.096;20.082;2023-03-01T10:40:06;99917.00;;;4.80
67822;BMP180;54434;50.096;20.082;2023-03-01T10:42:50;99915.40;;;4.80
67822;BMP180;54434;50.096;20.082;2023-03-01T10:45:38;99915.40;;;4.70
67822;BMP180;54434;50.096;20.082;2023-03-01T10:48:20;99911.60;;;4.60
67822;BMP180;54434;50.096;20.082;2023-03-01T10:51:17;99905.20;;;4.52
67822;BMP180;54434;50.096;20.082;2023-03-01T10:53:55;99904.80;;;4.52
67822;BMP180;54434;50.096;20.082;2023-03-01T10:56:47;99902.40;;;4.50
67822;BMP180;54434;50.096;20.082;2023-03-01T10:59:32;99900.60;;;4.50
67822;BMP180;54434;50.096;20.082;2023-03-01T11:02:25;99901.80;;;4.50
67822;BMP180;54434;50.096;20.082;2023-03-01T11:05:19;99898.00;;;4.44
67822;BMP180;54434;50.096;20.082;2023-03-01T11:08:00;99887.80;;;4.40
67822;BMP180;54434;50.096;20.082;2023-03-01T11:10:39;99889.40;;;4.50
67822;BMP180;54434;50.096;20.082;2023-03-01T11:13:20;99886.60;;;4.50
67822;BMP180;54434;50.096;20.082;2023-03-01T11:16:07;99884.20;;;4.48
67822;BMP180;54434;50.096;20.082;2023-03-01T11:18:57;99877.20;;;4.40
67822;BMP180;54434;50.096;20.082;2023-03-01T11:21:38;99873.80;;;4.42
67822;BMP180;54434;50.096;20.082;2023-03-01T11:24:18;99878.00;;;4.46
67822;BMP180;54434;50.096;20.082;2023-03-01T11:26:57;99878.00;;;4.46
67822;BMP180;54434;50.096;20.082;2023-03-01T11:29:42;99872.60;;;4.50
67822;BMP180;54434;50.096;20.082;2023-03-01T11:32:27;99873.40;;;4.50
67822;BMP180;54434;50.096;20.082;2023-03-01T11:35:13;99869.80;;;4.50
67822;BMP180;54434;50.096;20.082;2023-03-01T11:38:09;99866.40;;;4.50
67822;BMP180;54434;50.096;20.082;2023-03-01T11:40:55;99863.40;;;4.56
67822;BMP180;54434;50.096;20.082;2023-03-01T11:43:47;99861.80;;;4.60
67822;BMP180;54434;50.096;20.082;2023-03-01T11:50:18;99860.00;;;4.60
67822;BMP180;54434;50.096;20.082;2023-03-01T11:53:28;99850.00;;;4.70
67822;BMP180;54434;50.096;20.082;2023-03-01T11:56:27;99841.60;;;4.78
67822;BMP180;54434;50.096;20.082;2023-03-01T12:10:02;99834.40;;;4.90
67822;BMP180;54434;50.096;20.082;2023-03-01T12:13:17;99835.00;;;4.88
67822;BMP180;54434;50.096;20.082;2023-03-01T12:16:37;99830.20;;;4.90
67822;BMP180;54434;50.096;20.082;2023-03-01T12:19:41;99830.60;;;4.88
67822;BMP180;54434;50.096;20.082;2023-03-01T12:22:34;99821.00;;;4.80
67822;BMP180;54434;50.096;20.082;2023-03-01T12:25:40;99827.00;;;4.80
67822;BMP180;54434;50.096;20.082;2023-03-01T12:28:57;99819.80;;;4.80
67822;BMP180;54434;50.096;20.082;2023-03-01T12:31:59;99821.80;;;4.84
67822;BMP180;54434;50.096;20.082;2023-03-01T12:35:13;99808.80;;;4.90
67822;BMP180;54434;50.096;20.082;2023-03-01T12:38:04;99802.80;;;5.00
67822;BMP180;54434;50.096;20.082;2023-03-01T12:41:31;99799.00;;;4.98
67822;BMP180;54434;50.096;20.082;2023-03-01T12:44:45;99792.00;;;5.00
67822;BMP180;54434;50.096;20.082;2023-03-01T12:47:52;99784.40;;;5.00
67822;BMP180;54434;50.096;20.082;2023-03-01T12:50:41;99782.20;;;5.00
67822;BMP180;54434;50.096;20.082;2023-03-01T12:53:28;99781.00;;;5.00
67822;BMP180;54434;50.096;20.082;2023-03-01T12:56:11;99779.40;;;5.00
67822;BMP180;54434;50.096;20.082;2023-03-01T12:59:04;99778.60;;;5.00
67822;BMP180;54434;50.096;20.082;2023-03-01T13:01:55;99779.00;;;5.00
67822;BMP180;54434;50.096;20.082;2023-03-01T13:04:52;99782.20;;;5.00
67822;BMP180;54434;50.096;20.082;2023-03-01T13:07:38;99779.60;;;5.00
67822;BMP180;54434;50.096;20.082;2023-03-01T13:10:33;99777.80;;;5.00
67822;BMP180;54434;50.096;20.082;2023-03-01T13:13:24;99777.80;;;5.00
67822;BMP180;54434;50.096;20.082;2023-03-01T13:19:18;99784.00;;;5.00
67822;BMP180;54434;50.096;20.082;2023-03-01T13:21:57;99782.80;;;5.10
67822;BMP180;54434;50.096;20.082;2023-03-01T13:24:39;99787.80;;;5.10
67822;BMP180;54434;50.096;20.082;2023-03-01T13:27:27;99781.20;;;5.10
67822;BMP180;54434;50.096;20.082;2023-03-01T13:30:12;99781.20;;;5.10
67822;BMP180;54434;50.096;20.082;2023-03-01T13:33:48;99781.80;;;5.10
67822;BMP180;54434;50.096;20.082;2023-03-01T13:37:17;99770.80;;;5.10
67822;BMP180;54434;50.096;20.082;2023-03-01T13:39:55;99766.20;;;5.10
67822;BMP180;54434;50.096;20.082;2023-03-01T13:42:45;99765.60;;;5.10
67822;BMP180;54434;50.096;20.082;2023-03-01T13:45:44;99759.20;;;5.10
67822;BMP180;54434;50.096;20.082;2023-03-01T13:48:28;99759.60;;;5.10
67822;BMP180;54434;50.096;20.082;2023-03-01T13:51:10;99756.20;;;5.10
67822;BMP180;54434;50.096;20.082;2023-03-01T13:53:50;99752.60;;;5.10
67822;BMP180;54434;50.096;20.082;2023-03-01T13:56:35;99748.40;;;5.10
67822;BMP180;54434;50.096;20.082;2023-03-01T13:59:20;99746.20;;;5.10
67822;BMP180;54434;50.096;20.082;2023-03-01T14:02:02;99748.20;;;5.10
67822;BMP180;54434;50.096;20.082;2023-03-01T14:04:38;99744.80;;;5.10
67822;BMP180;54434;50.096;20.082;2023-03-01T14:07:22;99743.40;;;5.10
67822;BMP180;54434;50.096;20.082;2023-03-01T14:10:03;99736.00;;;5.10
67822;BMP180;54434;50.096;20.082;2023-03-01T14:12:52;99734.00;;;5.10
67822;BMP180;54434;50.096;20.082;2023-03-01T14:15:46;99731.40;;;5.04
67822;BMP180;54434;50.096;20.082;2023-03-01T14:18:32;99729.60;;;5.00
67822;BMP180;54434;50.096;20.082;2023-03-01T14:21:17;99731.00;;;5.00
67822;BMP180;54434;50.096;20.082;2023-03-01T14:23:54;99725.60;;;5.00
67822;BMP180;54434;50.096;20.082;2023-03-01T14:26:31;99722.60;;;4.94
67822;BMP180;54434;50.096;20.082;2023-03-01T14:29:25;99720.40;;;4.92
67822;BMP180;54434;50.096;20.082;2023-03-01T14:32:20;99718.40;;;4.94
67822;BMP180;54434;50.096;20.082;2023-03-01T14:34:58;99720.00;;;4.90
67822;BMP180;54434;50.096;20.082;2023-03-01T14:37:36;99719.00;;;4.90
67822;BMP180;54434;50.096;20.082;2023-03-01T14:40:32;99718.80;;;4.90
67822;BMP180;54434;50.096;20.082;2023-03-01T14:43:23;99719.80;;;4.90
67822;BMP180;54434;50.096;20.082;2023-03-01T14:46:01;99724.00;;;4.86
67822;BMP180;54434;50.096;20.082;2023-03-01T14:48:37;99726.40;;;4.80
67822;BMP180;54434;50.096;20.082;2023-03-01T14:51:15;99721.60;;;4.80
67822;BMP180;54434;50.096;20.082;2023-03-01T14:53:52;99721.60;;;4.80
67822;BMP180;54434;50.096;20.082;2023-03-01T14:56:45;99718.00;;;4.80
67822;BMP180;54434;50.096;20.082;2023-03-01T14:59:22;99719.00;;;4.80
67822;BMP180;54434;50.096;20.082;2023-03-01T15:02:01;99716.40;;;4.78
67822;BMP180;54434;50.096;20.082;2023-03-01T15:04:38;99714.80;;;4.76
67822;BMP180;54434;50.096;20.082;2023-03-01T15:07:17;99715.40;;;4.70
67822;BMP180;54434;50.096;20.082;2023-03-01T15:09:54;99715.40;;;4.70
67822;BMP180;54434;50.096;20.082;2023-03-01T15:12:44;99715.80;;;4.70
67822;BMP180;54434;50.096;20.082;2023-03-01T15:15:39;99717.00;;;4.70
67822;BMP180;54434;50.096;20.082;2023-03-01T15:18:25;99717.00;;;4.60
67822;BMP180;54434;50.096;20.082;2023-03-01T15:21:18;99717.60;;;4.60
67822;BMP180;54434;50.096;20.082;2023-03-01T15:24:13;99716.60;;;4.60
67822;BMP180;54434;50.096;20.082;2023-03-01T15:26:59;99711.00;;;4.60
67822;BMP180;54434;50.096;20.082;2023-03-01T15:29:50;99713.40;;;4.50
67822;BMP180;54434;50.096;20.082;2023-03-01T15:32:32;99715.20;;;4.50
67822;BMP180;54434;50.096;20.082;2023-03-01T15:35:43;99709.80;;;4.40
67822;BMP180;54434;50.096;20.082;2023-03-01T15:38:54;99708.40;;;4.40
67822;BMP180;54434;50.096;20.082;2023-03-01T15:41:37;99711.00;;;4.38
67822;BMP180;54434;50.096;20.082;2023-03-01T15:44:32;99707.80;;;4.30
67822;BMP180;54434;50.096;20.082;2023-03-01T15:47:35;99707.20;;;4.30